DLH9PH EDDM-EDDF
Flight info
| Callsign | DLH9PH |
|---|---|
| Flight time | 0h 34m |
| Altitude | 24000 |
| Route | GIVMI1N/26R GIVMI Y101 ERNAS T161 DEBHI DEBHI1B |
| Aircraft | A320/M-SDE3FGHIRWY/LB1 |
Departure
| Time | 2026-05-07 17:01 |
|---|---|
| Airport | Munich Airport (EDDM) |
Arrival
| Time | 2026-05-07 17:35 |
|---|---|
| Airport | Frankfurt Main Airport (EDDF) |
| Time | Latitude | Longitude | Altitude | Speed | Heading |
|---|---|---|---|---|---|
| 2026-05-07 16:27 | 48.35382 | 11.80020 | 1467 ft | 0 kts | 263° |
| 2026-05-07 16:44 | 48.35382 | 11.80024 | 1466 ft | 2 kts | 263° |
| 2026-05-07 16:44 | 48.35383 | 11.80033 | 1464 ft | 2 kts | 263° |
| 2026-05-07 16:45 | 48.35385 | 11.80059 | 1463 ft | 2 kts | 263° |
| 2026-05-07 16:45 | 48.35387 | 11.80084 | 1459 ft | 2 kts | 263° |
| 2026-05-07 16:45 | 48.35389 | 11.80110 | 1460 ft | 2 kts | 263° |
| 2026-05-07 16:45 | 48.35391 | 11.80136 | 1463 ft | 2 kts | 263° |
| 2026-05-07 16:46 | 48.35390 | 11.80161 | 1460 ft | 2 kts | 314° |
| 2026-05-07 16:46 | 48.35377 | 11.80178 | 1461 ft | 2 kts | 356° |
| 2026-05-07 16:46 | 48.35373 | 11.80178 | 1461 ft | 0 kts | 355° |
| 2026-05-07 16:48 | 48.35392 | 11.80176 | 1465 ft | 6 kts | 355° |
| 2026-05-07 16:48 | 48.35441 | 11.80166 | 1467 ft | 8 kts | 352° |
| 2026-05-07 16:49 | 48.35516 | 11.80153 | 1464 ft | 13 kts | 353° |
| 2026-05-07 16:49 | 48.35609 | 11.80133 | 1464 ft | 14 kts | 346° |
| 2026-05-07 16:49 | 48.35706 | 11.80079 | 1467 ft | 15 kts | 350° |
| 2026-05-07 16:49 | 48.35806 | 11.80022 | 1462 ft | 16 kts | 309° |
| 2026-05-07 16:50 | 48.35818 | 11.79851 | 1458 ft | 18 kts | 266° |
| 2026-05-07 16:50 | 48.35815 | 11.79812 | 1463 ft | 0 kts | 263° |
| 2026-05-07 16:50 | 48.35810 | 11.79748 | 1464 ft | 12 kts | 263° |
| 2026-05-07 16:51 | 48.35800 | 11.79625 | 1465 ft | 12 kts | 263° |
| 2026-05-07 16:51 | 48.35823 | 11.79531 | 1463 ft | 10 kts | 336° |
| 2026-05-07 16:51 | 48.35898 | 11.79515 | 1467 ft | 12 kts | 353° |
| 2026-05-07 16:51 | 48.35985 | 11.79501 | 1462 ft | 13 kts | 354° |
| 2026-05-07 16:52 | 48.36082 | 11.79483 | 1464 ft | 14 kts | 353° |
| 2026-05-07 16:52 | 48.36182 | 11.79470 | 1463 ft | 15 kts | 8° |
| 2026-05-07 16:52 | 48.36224 | 11.79601 | 1459 ft | 16 kts | 83° |
| 2026-05-07 16:52 | 48.36237 | 11.79768 | 1461 ft | 16 kts | 83° |
| 2026-05-07 16:53 | 48.36251 | 11.79948 | 1463 ft | 18 kts | 83° |
| 2026-05-07 16:53 | 48.36266 | 11.80137 | 1459 ft | 19 kts | 83° |
| 2026-05-07 16:53 | 48.36283 | 11.80344 | 1463 ft | 21 kts | 84° |
| 2026-05-07 16:53 | 48.36297 | 11.80566 | 1467 ft | 22 kts | 84° |
| 2026-05-07 16:54 | 48.36316 | 11.80800 | 1464 ft | 23 kts | 83° |
| 2026-05-07 16:54 | 48.36336 | 11.81048 | 1467 ft | 25 kts | 83° |
| 2026-05-07 16:54 | 48.36356 | 11.81309 | 1467 ft | 26 kts | 85° |
| 2026-05-07 16:54 | 48.36377 | 11.81585 | 1460 ft | 27 kts | 83° |
| 2026-05-07 16:55 | 48.36398 | 11.81868 | 1466 ft | 24 kts | 83° |
| 2026-05-07 16:55 | 48.36386 | 11.81985 | 1462 ft | 10 kts | 104° |
| 2026-05-07 16:55 | 48.36391 | 11.82078 | 1466 ft | 8 kts | 81° |
| 2026-05-07 16:55 | 48.36404 | 11.82206 | 1466 ft | 16 kts | 81° |
| 2026-05-07 16:56 | 48.36476 | 11.82303 | 1462 ft | 15 kts | 353° |
| 2026-05-07 16:56 | 48.36484 | 11.82302 | 1463 ft | 0 kts | 353° |
| 2026-05-07 16:58 | 48.36506 | 11.82298 | 1476 ft | 13 kts | 353° |
| 2026-05-07 16:59 | 48.36594 | 11.82221 | 1460 ft | 16 kts | 310° |
| 2026-05-07 16:59 | 48.36665 | 11.82087 | 1460 ft | 17 kts | 307° |
| 2026-05-07 16:59 | 48.36674 | 11.81916 | 1467 ft | 17 kts | 263° |
| 2026-05-07 16:59 | 48.36672 | 11.81893 | 1467 ft | 0 kts | 263° |
| 2026-05-07 17:00 | 48.36668 | 11.81844 | 1462 ft | 28 kts | 265° |
| 2026-05-07 17:00 | 48.36617 | 11.81155 | 1466 ft | 101 kts | 263° |
| 2026-05-07 17:00 | 48.36512 | 11.79809 | 1464 ft | 156 kts | 263° |
| 2026-05-07 17:00 | 48.36392 | 11.77974 | 1580 ft | 188 kts | 267° |
| 2026-05-07 17:01 | 48.36225 | 11.76119 | 2527 ft | 168 kts | 263° |
| 2026-05-07 17:01 | 48.36044 | 11.74405 | 3234 ft | 167 kts | 262° |
| 2026-05-07 17:01 | 48.35871 | 11.72706 | 3921 ft | 162 kts | 264° |
| 2026-05-07 17:01 | 48.35740 | 11.71015 | 4405 ft | 171 kts | 265° |
| 2026-05-07 17:02 | 48.35660 | 11.69113 | 4656 ft | 194 kts | 275° |
| 2026-05-07 17:02 | 48.36042 | 11.67063 | 4937 ft | 214 kts | 297° |
| 2026-05-07 17:02 | 48.36862 | 11.65062 | 5291 ft | 234 kts | 301° |
| 2026-05-07 17:02 | 48.37738 | 11.62953 | 5929 ft | 244 kts | 301° |
| 2026-05-07 17:03 | 48.38663 | 11.60696 | 6430 ft | 263 kts | 300° |
| 2026-05-07 17:03 | 48.39664 | 11.58239 | 6772 ft | 287 kts | 300° |
| 2026-05-07 17:03 | 48.40751 | 11.55565 | 7057 ft | 312 kts | 300° |
| 2026-05-07 17:03 | 48.41922 | 11.52676 | 7263 ft | 335 kts | 300° |
| 2026-05-07 17:04 | 48.43170 | 11.49595 | 7546 ft | 351 kts | 300° |
| 2026-05-07 17:04 | 48.44472 | 11.46462 | 7865 ft | 356 kts | 304° |
| 2026-05-07 17:04 | 48.46263 | 11.43861 | 8190 ft | 363 kts | 325° |
| 2026-05-07 17:04 | 48.48607 | 11.42399 | 8526 ft | 370 kts | 345° |
| 2026-05-07 17:05 | 48.51147 | 11.41667 | 8872 ft | 373 kts | 347° |
| 2026-05-07 17:05 | 48.53707 | 11.40968 | 9215 ft | 375 kts | 347° |
| 2026-05-07 17:05 | 48.56285 | 11.40269 | 9566 ft | 378 kts | 347° |
| 2026-05-07 17:05 | 48.58880 | 11.39565 | 9908 ft | 380 kts | 347° |
| 2026-05-07 17:06 | 48.61470 | 11.38741 | 10217 ft | 380 kts | 339° |
| 2026-05-07 17:06 | 48.63824 | 11.37007 | 10537 ft | 376 kts | 322° |
| 2026-05-07 17:06 | 48.65748 | 11.34354 | 10859 ft | 375 kts | 311° |
| 2026-05-07 17:06 | 48.66948 | 11.32455 | 11073 ft | 376 kts | 311° |
| 2026-05-07 17:07 | 48.68750 | 11.29576 | 11399 ft | 378 kts | 311° |
| 2026-05-07 17:07 | 48.70556 | 11.26673 | 11729 ft | 379 kts | 311° |
| 2026-05-07 17:07 | 48.72366 | 11.23757 | 12060 ft | 381 kts | 311° |
| 2026-05-07 17:07 | 48.74189 | 11.20822 | 12398 ft | 383 kts | 311° |
| 2026-05-07 17:08 | 48.76023 | 11.17872 | 12741 ft | 385 kts | 311° |
| 2026-05-07 17:08 | 48.77869 | 11.14909 | 13092 ft | 388 kts | 311° |
| 2026-05-07 17:08 | 48.79725 | 11.11933 | 13440 ft | 390 kts | 311° |
| 2026-05-07 17:08 | 48.81593 | 11.08935 | 13795 ft | 392 kts | 311° |
| 2026-05-07 17:09 | 48.83470 | 11.05921 | 14113 ft | 394 kts | 311° |
| 2026-05-07 17:09 | 48.85352 | 11.02892 | 14429 ft | 395 kts | 311° |
| 2026-05-07 17:09 | 48.87236 | 10.99850 | 14747 ft | 396 kts | 311° |
| 2026-05-07 17:09 | 48.89130 | 10.96789 | 15070 ft | 398 kts | 311° |
| 2026-05-07 17:10 | 48.91030 | 10.93716 | 15397 ft | 400 kts | 311° |
| 2026-05-07 17:10 | 48.92940 | 10.90624 | 15739 ft | 402 kts | 311° |
| 2026-05-07 17:10 | 48.94855 | 10.87523 | 16075 ft | 403 kts | 311° |
| 2026-05-07 17:10 | 48.96778 | 10.84406 | 16413 ft | 404 kts | 311° |
| 2026-05-07 17:11 | 48.98705 | 10.81275 | 16750 ft | 406 kts | 311° |
| 2026-05-07 17:11 | 49.00632 | 10.78135 | 17101 ft | 407 kts | 311° |
| 2026-05-07 17:11 | 49.02568 | 10.74975 | 17462 ft | 408 kts | 311° |
| 2026-05-07 17:11 | 49.04510 | 10.71804 | 17809 ft | 410 kts | 311° |
| 2026-05-07 17:12 | 49.06464 | 10.68612 | 18165 ft | 412 kts | 311° |
| 2026-05-07 17:12 | 49.08419 | 10.65408 | 18501 ft | 414 kts | 311° |
| 2026-05-07 17:12 | 49.10398 | 10.62163 | 18812 ft | 416 kts | 311° |
| 2026-05-07 17:12 | 49.12384 | 10.58911 | 19125 ft | 418 kts | 311° |
| 2026-05-07 17:13 | 49.14354 | 10.55687 | 19447 ft | 420 kts | 311° |
| 2026-05-07 17:13 | 49.16357 | 10.52403 | 19761 ft | 422 kts | 311° |
| 2026-05-07 17:13 | 49.18362 | 10.49109 | 20091 ft | 424 kts | 311° |
| 2026-05-07 17:13 | 49.20371 | 10.45799 | 20417 ft | 426 kts | 311° |
| 2026-05-07 17:14 | 49.22388 | 10.42470 | 20715 ft | 427 kts | 311° |
| 2026-05-07 17:14 | 49.24409 | 10.39127 | 21060 ft | 429 kts | 311° |
| 2026-05-07 17:14 | 49.26440 | 10.35763 | 21400 ft | 431 kts | 311° |
| 2026-05-07 17:14 | 49.28478 | 10.32387 | 21745 ft | 433 kts | 311° |
| 2026-05-07 17:15 | 49.30525 | 10.28993 | 22085 ft | 435 kts | 311° |
| 2026-05-07 17:15 | 49.32579 | 10.25580 | 22431 ft | 437 kts | 311° |
| 2026-05-07 17:15 | 49.34641 | 10.22147 | 22785 ft | 438 kts | 311° |
| 2026-05-07 17:15 | 49.36706 | 10.18701 | 23138 ft | 439 kts | 311° |
| 2026-05-07 17:16 | 49.38778 | 10.15240 | 23503 ft | 440 kts | 311° |
| 2026-05-07 17:16 | 49.40854 | 10.11776 | 23827 ft | 441 kts | 311° |
| 2026-05-07 17:16 | 49.42940 | 10.08291 | 24013 ft | 445 kts | 311° |
| 2026-05-07 17:16 | 49.45046 | 10.04765 | 24061 ft | 450 kts | 311° |
| 2026-05-07 17:17 | 49.47163 | 10.01213 | 24048 ft | 451 kts | 311° |
| 2026-05-07 17:17 | 49.49283 | 9.97657 | 24057 ft | 451 kts | 311° |
| 2026-05-07 17:17 | 49.51383 | 9.94137 | 24039 ft | 436 kts | 311° |
| 2026-05-07 17:17 | 49.53380 | 9.90789 | 24057 ft | 414 kts | 311° |
| 2026-05-07 17:18 | 49.55282 | 9.87612 | 24051 ft | 394 kts | 312° |
| 2026-05-07 17:18 | 49.57124 | 9.84553 | 23866 ft | 386 kts | 311° |
| 2026-05-07 17:18 | 49.58928 | 9.81518 | 23394 ft | 382 kts | 311° |
| 2026-05-07 17:18 | 49.60705 | 9.78502 | 22879 ft | 378 kts | 311° |
| 2026-05-07 17:19 | 49.62463 | 9.75512 | 22378 ft | 375 kts | 311° |
| 2026-05-07 17:19 | 49.64209 | 9.72539 | 21887 ft | 372 kts | 311° |
| 2026-05-07 17:19 | 49.65941 | 9.69593 | 21411 ft | 369 kts | 311° |
| 2026-05-07 17:19 | 49.67659 | 9.66668 | 20940 ft | 366 kts | 311° |
| 2026-05-07 17:20 | 49.69364 | 9.63768 | 20466 ft | 363 kts | 311° |
| 2026-05-07 17:20 | 49.71061 | 9.60893 | 20017 ft | 361 kts | 311° |
| 2026-05-07 17:20 | 49.72744 | 9.58039 | 19565 ft | 358 kts | 311° |
| 2026-05-07 17:20 | 49.74413 | 9.55197 | 19119 ft | 355 kts | 311° |
| 2026-05-07 17:21 | 49.76064 | 9.52373 | 18673 ft | 353 kts | 310° |
| 2026-05-07 17:21 | 49.77700 | 9.49565 | 18231 ft | 350 kts | 310° |
| 2026-05-07 17:21 | 49.79323 | 9.46767 | 17736 ft | 348 kts | 310° |
| 2026-05-07 17:21 | 49.80933 | 9.43986 | 17268 ft | 346 kts | 310° |
| 2026-05-07 17:22 | 49.82531 | 9.41217 | 16795 ft | 344 kts | 311° |
| 2026-05-07 17:22 | 49.84123 | 9.38466 | 16344 ft | 342 kts | 311° |
| 2026-05-07 17:22 | 49.85577 | 9.35575 | 15908 ft | 339 kts | 302° |
| 2026-05-07 17:22 | 49.86651 | 9.32344 | 15469 ft | 336 kts | 291° |
| 2026-05-07 17:23 | 49.87360 | 9.28906 | 15042 ft | 335 kts | 286° |
| 2026-05-07 17:23 | 49.88013 | 9.25446 | 14611 ft | 333 kts | 287° |
| 2026-05-07 17:23 | 49.88669 | 9.22013 | 14197 ft | 331 kts | 287° |
| 2026-05-07 17:23 | 49.89324 | 9.18612 | 13762 ft | 329 kts | 287° |
| 2026-05-07 17:24 | 49.89977 | 9.15212 | 13307 ft | 327 kts | 287° |
| 2026-05-07 17:24 | 49.90619 | 9.11843 | 12916 ft | 323 kts | 287° |
| 2026-05-07 17:24 | 49.91245 | 9.08545 | 12591 ft | 317 kts | 286° |
| 2026-05-07 17:24 | 49.91869 | 9.05252 | 12047 ft | 319 kts | 286° |
| 2026-05-07 17:25 | 49.92494 | 9.01947 | 11512 ft | 320 kts | 286° |
| 2026-05-07 17:25 | 49.93119 | 8.98634 | 10986 ft | 320 kts | 286° |
| 2026-05-07 17:25 | 49.93877 | 8.95396 | 10467 ft | 320 kts | 300° |
| 2026-05-07 17:25 | 49.95347 | 8.92840 | 9959 ft | 320 kts | 324° |
| 2026-05-07 17:26 | 49.97389 | 8.91510 | 9395 ft | 322 kts | 349° |
| 2026-05-07 17:26 | 49.99621 | 8.91495 | 8839 ft | 323 kts | 8° |
| 2026-05-07 17:26 | 50.01740 | 8.92630 | 8290 ft | 324 kts | 29° |
| 2026-05-07 17:26 | 50.03419 | 8.94878 | 7758 ft | 326 kts | 51° |
| 2026-05-07 17:27 | 50.04472 | 8.98040 | 7225 ft | 326 kts | 68° |
| 2026-05-07 17:27 | 50.05259 | 9.01338 | 6704 ft | 325 kts | 69° |
| 2026-05-07 17:27 | 50.06027 | 9.04644 | 6167 ft | 324 kts | 69° |
| 2026-05-07 17:27 | 50.06833 | 9.07888 | 5713 ft | 318 kts | 61° |
| 2026-05-07 17:28 | 50.08154 | 9.10482 | 5579 ft | 299 kts | 34° |
| 2026-05-07 17:28 | 50.10017 | 9.11509 | 5431 ft | 280 kts | 358° |
| 2026-05-07 17:28 | 50.11807 | 9.10787 | 5279 ft | 264 kts | 338° |
| 2026-05-07 17:28 | 50.13466 | 9.09694 | 4993 ft | 256 kts | 324° |
| 2026-05-07 17:29 | 50.14399 | 9.07425 | 4543 ft | 254 kts | 282° |
| 2026-05-07 17:29 | 50.14593 | 9.04710 | 4290 ft | 247 kts | 271° |
| 2026-05-07 17:29 | 50.14306 | 9.02154 | 4205 ft | 235 kts | 254° |
| 2026-05-07 17:29 | 50.13774 | 8.99779 | 4038 ft | 230 kts | 250° |
| 2026-05-07 17:30 | 50.13147 | 8.97476 | 3958 ft | 231 kts | 247° |
| 2026-05-07 17:30 | 50.12511 | 8.95179 | 3878 ft | 231 kts | 250° |
| 2026-05-07 17:30 | 50.11939 | 8.92844 | 3887 ft | 230 kts | 252° |
| 2026-05-07 17:30 | 50.11412 | 8.90491 | 3912 ft | 226 kts | 253° |
| 2026-05-07 17:31 | 50.10913 | 8.88269 | 3913 ft | 209 kts | 252° |
| 2026-05-07 17:31 | 50.10454 | 8.86209 | 3886 ft | 194 kts | 253° |
| 2026-05-07 17:31 | 50.10035 | 8.84273 | 3818 ft | 183 kts | 253° |
| 2026-05-07 17:31 | 50.09570 | 8.82419 | 3745 ft | 181 kts | 248° |
| 2026-05-07 17:32 | 50.09109 | 8.80609 | 3535 ft | 181 kts | 256° |
| 2026-05-07 17:32 | 50.08724 | 8.78735 | 3494 ft | 182 kts | 249° |
| 2026-05-07 17:32 | 50.08230 | 8.76973 | 3243 ft | 178 kts | 250° |
| 2026-05-07 17:32 | 50.07949 | 8.75754 | 2987 ft | 176 kts | 256° |
| 2026-05-07 17:33 | 50.07508 | 8.73418 | 2613 ft | 163 kts | 251° |
| 2026-05-07 17:33 | 50.07107 | 8.71759 | 2252 ft | 160 kts | 251° |
| 2026-05-07 17:33 | 50.06708 | 8.70177 | 1992 ft | 155 kts | 249° |
| 2026-05-07 17:33 | 50.06326 | 8.68612 | 1718 ft | 154 kts | 259° |
| 2026-05-07 17:34 | 50.06154 | 8.66975 | 1439 ft | 153 kts | 263° |
| 2026-05-07 17:34 | 50.06035 | 8.65336 | 1202 ft | 151 kts | 263° |
| 2026-05-07 17:34 | 50.05722 | 8.63794 | 1056 ft | 150 kts | 246° |
| 2026-05-07 17:34 | 50.05333 | 8.62297 | 848 ft | 148 kts | 249° |
| 2026-05-07 17:35 | 50.05016 | 8.60772 | 641 ft | 147 kts | 248° |
| 2026-05-07 17:35 | 50.04646 | 8.59287 | 447 ft | 148 kts | 248° |
| 2026-05-07 17:35 | 50.04296 | 8.57812 | 352 ft | 135 kts | 249° |
| 2026-05-07 17:35 | 50.04084 | 8.56900 | 347 ft | 35 kts | 250° |
| 2026-05-07 17:36 | 50.04074 | 8.56857 | 349 ft | 0 kts | 250° |
| 2026-05-07 17:36 | 50.04061 | 8.56795 | 351 ft | 16 kts | 256° |
| 2026-05-07 17:36 | 50.04121 | 8.56733 | 350 ft | 0 kts | 29° |
| 2026-05-07 17:36 | 50.04134 | 8.56744 | 350 ft | 9 kts | 29° |
| 2026-05-07 17:37 | 50.04177 | 8.56773 | 351 ft | 0 kts | 14° |
| 2026-05-07 17:38 | 50.04225 | 8.56793 | 354 ft | 16 kts | 14° |
| 2026-05-07 17:38 | 50.04332 | 8.56824 | 346 ft | 15 kts | 10° |
| 2026-05-07 17:38 | 50.04427 | 8.56848 | 348 ft | 13 kts | 8° |
| 2026-05-07 17:39 | 50.04510 | 8.56876 | 345 ft | 12 kts | 14° |
| 2026-05-07 17:39 | 50.04584 | 8.56901 | 349 ft | 10 kts | 12° |
| 2026-05-07 17:39 | 50.04646 | 8.56931 | 348 ft | 9 kts | 21° |
| 2026-05-07 17:39 | 50.04698 | 8.56966 | 354 ft | 8 kts | 24° |
| 2026-05-07 17:40 | 50.04734 | 8.56942 | 345 ft | 5 kts | 303° |
| 2026-05-07 17:40 | 50.04749 | 8.56894 | 350 ft | 4 kts | 295° |
| 2026-05-07 17:40 | 50.04750 | 8.56890 | 349 ft | 0 kts | 295° |
| 2026-05-07 17:40 | 50.04750 | 8.56888 | 349 ft | 2 kts | 295° |
| 2026-05-07 17:41 | 50.04752 | 8.56882 | 349 ft | 0 kts | 295° |